createdAt,value
2022-08-01T00:00:19.417Z,102182.00
2022-08-01T00:02:52.434Z,102172.00
2022-08-01T00:05:25.157Z,102178.00
2022-08-01T00:07:58.402Z,102183.00
2022-08-01T00:10:32.026Z,102169.00
2022-08-01T00:13:04.963Z,102170.00
2022-08-01T00:15:38.016Z,102167.00
2022-08-01T00:18:10.722Z,102182.00
2022-08-01T00:20:43.827Z,102179.00
2022-08-01T00:23:16.848Z,102167.00
2022-08-01T00:25:49.768Z,102169.00
2022-08-01T00:28:22.492Z,102165.00
2022-08-01T00:30:55.514Z,102157.00
2022-08-01T00:33:28.435Z,102152.00
2022-08-01T00:36:01.589Z,102145.00
2022-08-01T00:38:35.850Z,102141.00
2022-08-01T00:41:08.790Z,102142.00
2022-08-01T00:43:41.880Z,102137.00
2022-08-01T00:46:14.871Z,102127.00
2022-08-01T00:48:47.722Z,102139.00
2022-08-01T00:51:21.345Z,102126.00
2022-08-01T00:53:55.583Z,102130.00
2022-08-01T00:56:30.596Z,102125.00
2022-08-01T00:59:04.530Z,102132.00
2022-08-01T01:01:39.961Z,102130.00
2022-08-01T01:04:12.378Z,102128.00
2022-08-01T01:06:59.207Z,102121.00
2022-08-01T01:09:52.320Z,102122.00
2022-08-01T01:12:38.807Z,102130.00
2022-08-01T01:15:41.007Z,102130.00
2022-08-01T01:18:14.237Z,102138.00
2022-08-01T01:20:49.008Z,102131.00
2022-08-01T01:23:35.925Z,102126.00
2022-08-01T01:26:33.040Z,102120.00
2022-08-01T01:29:16.778Z,102118.00
2022-08-01T01:31:58.057Z,102127.00
2022-08-01T01:34:32.500Z,102128.00
2022-08-01T01:37:06.244Z,102118.00
2022-08-01T01:39:40.840Z,102114.00
2022-08-01T01:42:17.764Z,102112.00
2022-08-01T01:44:50.544Z,102113.00
2022-08-01T01:47:24.169Z,102117.00
2022-08-01T01:49:59.254Z,102112.00
2022-08-01T01:52:35.089Z,102101.00
2022-08-01T01:55:09.180Z,102104.00
2022-08-01T01:57:46.697Z,102108.00
2022-08-01T02:00:24.373Z,102100.00
2022-08-01T02:03:00.187Z,102102.00
2022-08-01T02:05:41.526Z,102113.00
2022-08-01T02:08:15.900Z,102106.00
2022-08-01T02:11:07.222Z,102103.00
2022-08-01T02:13:41.658Z,102103.00
2022-08-01T02:16:14.895Z,102105.00
2022-08-01T02:18:47.923Z,102104.00
2022-08-01T02:21:22.762Z,102110.00
2022-08-01T02:23:56.887Z,102105.00
2022-08-01T02:26:30.514Z,102107.00
2022-08-01T02:29:08.369Z,102114.00
2022-08-01T02:31:43.419Z,102119.00
2022-08-01T02:34:18.570Z,102121.00
2022-08-01T02:36:52.338Z,102130.00
2022-08-01T02:39:26.716Z,102128.00
2022-08-01T02:42:01.242Z,102136.00
2022-08-01T02:44:36.011Z,102138.00
2022-08-01T02:47:09.740Z,102132.00
2022-08-01T02:49:53.188Z,102155.00
2022-08-01T02:52:27.296Z,102144.00
2022-08-01T02:55:01.358Z,102155.00
2022-08-01T02:57:51.508Z,102148.00
2022-08-01T03:00:14.485Z,102151.00
2022-08-01T03:02:55.412Z,102156.00
2022-08-01T03:05:29.992Z,102160.00
2022-08-01T03:08:04.182Z,102169.00
2022-08-01T03:10:40.412Z,102159.00
2022-08-01T03:13:15.018Z,102166.00
2022-08-01T03:15:49.920Z,102164.00
2022-08-01T03:18:25.658Z,102163.00
2022-08-01T03:21:00.194Z,102164.00
2022-08-01T03:23:38.280Z,102161.00
2022-08-01T03:26:09.610Z,102156.00
2022-08-01T03:28:43.142Z,102163.00
2022-08-01T03:31:21.424Z,102155.00
2022-08-01T03:33:54.723Z,102157.00
2022-08-01T03:36:30.765Z,102158.00
2022-08-01T03:39:05.197Z,102163.00
2022-08-01T03:41:39.789Z,102156.00
2022-08-01T03:44:14.254Z,102155.00
2022-08-01T03:46:49.158Z,102162.00
2022-08-01T03:49:24.163Z,102150.00
2022-08-01T03:51:57.806Z,102154.00
2022-08-01T03:54:32.070Z,102159.00
2022-08-01T03:57:06.208Z,102160.00
2022-08-01T03:59:40.677Z,102172.00
2022-08-01T04:02:14.286Z,102170.00
2022-08-01T04:04:47.410Z,102169.00
2022-08-01T04:07:31.236Z,102176.00
2022-08-01T04:10:03.959Z,102175.00
2022-08-01T04:12:36.603Z,102178.00
2022-08-01T04:15:10.267Z,102177.00
2022-08-01T04:17:42.962Z,102176.00
2022-08-01T04:20:16.308Z,102178.00
2022-08-01T04:22:49.221Z,102173.00
2022-08-01T04:25:38.932Z,102189.00
2022-08-01T04:28:14.289Z,102186.00
2022-08-01T04:30:47.957Z,102188.00
2022-08-01T04:33:22.610Z,102194.00
2022-08-01T04:36:02.554Z,102194.00
2022-08-01T04:38:33.434Z,102191.00
2022-08-01T04:41:08.946Z,102200.00
2022-08-01T04:43:49.907Z,102202.00
2022-08-01T04:46:22.215Z,102207.00
2022-08-01T04:48:55.646Z,102198.00
2022-08-01T04:51:28.565Z,102198.00
2022-08-01T04:54:01.439Z,102211.00
2022-08-01T04:56:35.230Z,102213.00
2022-08-01T04:59:31.609Z,102221.00
2022-08-01T05:02:05.254Z,102222.00
2022-08-01T05:04:42.350Z,102215.00
2022-08-01T05:07:16.098Z,102211.00
2022-08-01T05:09:49.138Z,102209.00
2022-08-01T05:12:21.939Z,102204.00
2022-08-01T05:14:54.830Z,102218.00
2022-08-01T05:17:28.094Z,102221.00
2022-08-01T05:20:00.926Z,102222.00
2022-08-01T05:22:33.954Z,102214.00
2022-08-01T05:25:07.805Z,102228.00
2022-08-01T05:27:42.170Z,102228.00
2022-08-01T05:30:15.508Z,102227.00
2022-08-01T05:32:48.593Z,102243.00
2022-08-01T05:35:21.522Z,102228.00
2022-08-01T05:37:55.004Z,102242.00
2022-08-01T05:40:27.959Z,102249.00
2022-08-01T05:43:00.934Z,102251.00
2022-08-01T05:45:34.060Z,102251.00
2022-08-01T05:48:07.105Z,102248.00
2022-08-01T05:50:39.976Z,102258.00
2022-08-01T05:53:12.902Z,102260.00
2022-08-01T05:55:49.933Z,102262.00
2022-08-01T05:58:23.001Z,102265.00
2022-08-01T06:00:56.016Z,102267.00
2022-08-01T06:03:29.063Z,102278.00
2022-08-01T06:06:02.216Z,102280.00
2022-08-01T06:08:35.637Z,102289.00
2022-08-01T06:11:08.734Z,102280.00
2022-08-01T06:13:44.973Z,102295.00
2022-08-01T06:16:16.035Z,102293.00
2022-08-01T06:18:49.092Z,102287.00
2022-08-01T06:21:21.790Z,102299.00
2022-08-01T06:23:59.027Z,102299.00
2022-08-01T06:26:31.994Z,102297.00
2022-08-01T06:29:04.824Z,102303.00
2022-08-01T06:31:39.952Z,102299.00
2022-08-01T06:34:12.677Z,102307.00
2022-08-01T06:36:45.977Z,102301.00
2022-08-01T06:39:18.888Z,102310.00
2022-08-01T06:41:51.858Z,102313.00
2022-08-01T06:44:24.783Z,102312.00
2022-08-01T06:46:57.810Z,102309.00
2022-08-01T06:49:31.224Z,102326.00
2022-08-01T06:52:06.988Z,102330.00
2022-08-01T06:54:40.302Z,102332.00
2022-08-01T06:57:13.144Z,102331.00
2022-08-01T06:59:54.121Z,102329.00
2022-08-01T07:02:24.071Z,102322.00
2022-08-01T07:04:57.132Z,102335.00
2022-08-01T07:07:30.287Z,102331.00
2022-08-01T07:10:03.432Z,102336.00
2022-08-01T07:12:36.543Z,102339.00
2022-08-01T07:15:11.569Z,102346.00
2022-08-01T07:17:48.323Z,102346.00
2022-08-01T07:20:21.085Z,102345.00
2022-08-01T07:22:56.452Z,102344.00
2022-08-01T07:25:29.110Z,102355.00
2022-08-01T07:28:06.128Z,102366.00
2022-08-01T07:30:38.967Z,102352.00
2022-08-01T07:33:15.509Z,102366.00
2022-08-01T07:35:48.728Z,102364.00
2022-08-01T07:38:21.954Z,102368.00
2022-08-01T07:40:55.025Z,102385.00
2022-08-01T07:43:28.400Z,102384.00
2022-08-01T07:46:01.443Z,102389.00
2022-08-01T07:48:34.582Z,102399.00
2022-08-01T07:51:07.575Z,102386.00
2022-08-01T07:53:40.402Z,102389.00
2022-08-01T07:56:13.387Z,102393.00
2022-08-01T07:58:46.303Z,102399.00
2022-08-01T08:01:19.093Z,102393.00
2022-08-01T08:03:52.046Z,102396.00
2022-08-01T08:06:24.879Z,102405.00
2022-08-01T08:09:01.717Z,102399.00
2022-08-01T08:11:34.941Z,102405.00
2022-08-01T08:14:07.884Z,102400.00
2022-08-01T08:16:40.907Z,102401.00
2022-08-01T08:19:13.900Z,102396.00
2022-08-01T08:21:47.466Z,102408.00
2022-08-01T08:24:26.538Z,102410.00
2022-08-01T08:26:59.127Z,102414.00
2022-08-01T08:29:34.306Z,102411.00
2022-08-01T08:32:07.433Z,102409.00
2022-08-01T08:34:40.822Z,102409.00
2022-08-01T08:37:14.020Z,102398.00
2022-08-01T08:39:47.719Z,102404.00
2022-08-01T08:42:20.694Z,102398.00
2022-08-01T08:44:53.323Z,102402.00
2022-08-01T08:47:28.269Z,102391.00
2022-08-01T08:50:02.813Z,102397.00
2022-08-01T08:52:37.746Z,102399.00
2022-08-01T08:55:12.344Z,102398.00
2022-08-01T08:57:47.295Z,102407.00
2022-08-01T09:00:21.226Z,102408.00
2022-08-01T09:02:55.636Z,102398.00
2022-08-01T09:05:38.912Z,102404.00
2022-08-01T09:08:05.696Z,102400.00
2022-08-01T09:10:39.716Z,102406.00
2022-08-01T09:13:17.498Z,102407.00
2022-08-01T09:15:52.950Z,102404.00
2022-08-01T09:18:45.919Z,102400.00
2022-08-01T09:21:24.122Z,102404.00
2022-08-01T09:23:59.949Z,102405.00
2022-08-01T09:26:39.802Z,102406.00
2022-08-01T09:29:14.525Z,102400.00
2022-08-01T09:31:49.644Z,102401.00
2022-08-01T09:34:30.787Z,102402.00
2022-08-01T09:37:07.624Z,102396.00
2022-08-01T09:39:42.854Z,102401.00
2022-08-01T09:42:28.741Z,102408.00
2022-08-01T09:45:00.571Z,102412.00
2022-08-01T09:47:43.219Z,102406.00
2022-08-01T09:50:17.275Z,102406.00
2022-08-01T09:52:51.873Z,102395.00
2022-08-01T09:55:25.819Z,102399.00
2022-08-01T09:58:03.138Z,102400.00
2022-08-01T10:00:45.385Z,102402.00
2022-08-01T10:03:31.620Z,102405.00
2022-08-01T10:06:06.913Z,102397.00
2022-08-01T10:08:41.669Z,102410.00
2022-08-01T10:11:16.678Z,102404.00
2022-08-01T10:13:49.672Z,102404.00
2022-08-01T10:16:24.984Z,102406.00
2022-08-01T10:19:01.293Z,102404.00
2022-08-01T10:21:56.262Z,102397.00
2022-08-01T10:24:18.879Z,102408.00
2022-08-01T10:26:58.837Z,102419.00
2022-08-01T10:29:46.445Z,102415.00
2022-08-01T10:32:12.283Z,102425.00
2022-08-01T10:34:45.438Z,102425.00
2022-08-01T10:37:20.039Z,102425.00
2022-08-01T10:40:08.559Z,102429.00
2022-08-01T10:42:28.142Z,102427.00
2022-08-01T10:45:01.979Z,102428.00
2022-08-01T10:47:50.914Z,102424.00
2022-08-01T10:50:21.791Z,102428.00
2022-08-01T10:53:16.426Z,102423.00
2022-08-01T10:56:08.292Z,102422.00
2022-08-01T10:58:44.423Z,102433.00
2022-08-01T11:01:31.662Z,102432.00
2022-08-01T11:04:17.931Z,102414.00
2022-08-01T11:06:59.023Z,102431.00
2022-08-01T11:09:41.941Z,102422.00
2022-08-01T11:12:23.588Z,102437.00
2022-08-01T11:15:08.171Z,102435.00
2022-08-01T11:17:49.710Z,102430.00
2022-08-01T11:20:28.927Z,102443.00
2022-08-01T11:23:11.154Z,102440.00
2022-08-01T11:26:03.517Z,102440.00
2022-08-01T11:28:32.499Z,102448.00
2022-08-01T11:31:20.250Z,102434.00
2022-08-01T11:34:03.045Z,102440.00
2022-08-01T11:36:57.689Z,102438.00
2022-08-01T11:39:13.456Z,102435.00
2022-08-01T11:41:46.006Z,102442.00
2022-08-01T11:44:21.138Z,102437.00
2022-08-01T11:46:58.388Z,102439.00
2022-08-01T11:49:57.621Z,102443.00
2022-08-01T11:52:39.243Z,102439.00
2022-08-01T11:55:16.635Z,102442.00
2022-08-01T11:57:48.561Z,102444.00
2022-08-01T12:00:23.183Z,102439.00
2022-08-01T12:03:04.996Z,102441.00
2022-08-01T12:05:43.387Z,102438.00
2022-08-01T12:08:18.215Z,102449.00
2022-08-01T12:10:53.358Z,102453.00
2022-08-01T12:13:27.910Z,102440.00
2022-08-01T12:16:01.643Z,102443.00
2022-08-01T12:18:36.501Z,102453.00
2022-08-01T12:21:09.474Z,102444.00
2022-08-01T12:23:42.416Z,102451.00
2022-08-01T12:26:29.186Z,102448.00
2022-08-01T12:28:51.827Z,102444.00
2022-08-01T12:31:26.166Z,102449.00
2022-08-01T12:33:59.212Z,102446.00
2022-08-01T12:36:36.068Z,102450.00
2022-08-01T12:39:09.073Z,102449.00
2022-08-01T12:41:42.196Z,102446.00
2022-08-01T12:44:21.378Z,102451.00
2022-08-01T12:46:54.703Z,102445.00
2022-08-01T12:49:27.960Z,102445.00
2022-08-01T12:52:01.044Z,102458.00
2022-08-01T12:54:33.954Z,102454.00
2022-08-01T12:57:07.319Z,102448.00
2022-08-01T12:59:40.694Z,102447.00
2022-08-01T13:02:16.828Z,102454.00
2022-08-01T13:04:56.272Z,102454.00
2022-08-01T13:07:47.560Z,102460.00
2022-08-01T13:10:32.010Z,102455.00
2022-08-01T13:13:04.891Z,102458.00
2022-08-01T13:15:41.556Z,102453.00
2022-08-01T13:18:34.417Z,102449.00
2022-08-01T13:21:18.256Z,102454.00
2022-08-01T13:24:12.864Z,102454.00
2022-08-01T13:26:53.345Z,102450.00
2022-08-01T13:29:28.640Z,102452.00
2022-08-01T13:32:01.895Z,102449.00
2022-08-01T13:34:43.070Z,102448.00
2022-08-01T13:37:15.861Z,102451.00
2022-08-01T13:39:55.979Z,102449.00
2022-08-01T13:42:28.748Z,102443.00
2022-08-01T13:45:13.879Z,102452.00
2022-08-01T13:47:38.815Z,102450.00
2022-08-01T13:50:17.114Z,102449.00
2022-08-01T13:52:49.920Z,102440.00
2022-08-01T13:55:22.858Z,102446.00
2022-08-01T13:57:55.714Z,102455.00
2022-08-01T14:00:28.418Z,102447.00
2022-08-01T14:03:04.945Z,102449.00
2022-08-01T14:05:37.763Z,102435.00
2022-08-01T14:08:11.488Z,102430.00
2022-08-01T14:10:44.248Z,102440.00
2022-08-01T14:13:23.760Z,102432.00
2022-08-01T14:15:56.744Z,102441.00
2022-08-01T14:18:29.710Z,102439.00
2022-08-01T14:21:05.784Z,102441.00
2022-08-01T14:23:37.073Z,102447.00
2022-08-01T14:26:12.303Z,102447.00
2022-08-01T14:28:46.339Z,102442.00
2022-08-01T14:31:19.455Z,102441.00
2022-08-01T14:33:52.410Z,102445.00
2022-08-01T14:36:30.251Z,102437.00
2022-08-01T14:39:00.907Z,102437.00
2022-08-01T14:41:33.893Z,102437.00
2022-08-01T14:44:07.088Z,102434.00
2022-08-01T14:46:57.267Z,102437.00
2022-08-01T14:49:14.362Z,102433.00
2022-08-01T14:51:47.382Z,102431.00
2022-08-01T14:54:26.969Z,102434.00
2022-08-01T14:56:55.146Z,102431.00
2022-08-01T14:59:28.181Z,102432.00
2022-08-01T15:02:01.391Z,102439.00
2022-08-01T15:04:34.377Z,102422.00
2022-08-01T15:07:07.204Z,102415.00
2022-08-01T15:09:39.979Z,102407.00
2022-08-01T15:12:13.418Z,102405.00
2022-08-01T15:14:52.630Z,102401.00
2022-08-01T15:17:28.289Z,102409.00
2022-08-01T15:20:01.760Z,102414.00
2022-08-01T15:22:34.848Z,102404.00
2022-08-01T15:25:09.810Z,102403.00
2022-08-01T15:27:42.612Z,102417.00
2022-08-01T15:30:16.112Z,102407.00
2022-08-01T15:32:54.251Z,102413.00
2022-08-01T15:35:27.249Z,102414.00
2022-08-01T15:38:00.072Z,102409.00
2022-08-01T15:40:34.186Z,102408.00
2022-08-01T15:43:07.099Z,102409.00
2022-08-01T15:45:48.654Z,102404.00
2022-08-01T15:48:14.643Z,102410.00
2022-08-01T15:50:47.434Z,102387.00
2022-08-01T15:53:20.208Z,102391.00
2022-08-01T15:55:53.157Z,102394.00
2022-08-01T15:58:30.008Z,102396.00
2022-08-01T16:01:03.051Z,102387.00
2022-08-01T16:03:39.872Z,102388.00
2022-08-01T16:06:12.819Z,102399.00
2022-08-01T16:08:45.916Z,102393.00
2022-08-01T16:11:18.918Z,102386.00
2022-08-01T16:13:51.863Z,102381.00
2022-08-01T16:16:24.807Z,102388.00
2022-08-01T16:18:57.636Z,102385.00
2022-08-01T16:21:30.712Z,102384.00
2022-08-01T16:24:03.939Z,102392.00
2022-08-01T16:26:37.221Z,102399.00
2022-08-01T16:29:10.363Z,102393.00
2022-08-01T16:31:55.792Z,102391.00
2022-08-01T16:34:17.350Z,102389.00
2022-08-01T16:36:50.069Z,102391.00
2022-08-01T16:39:23.752Z,102397.00
2022-08-01T16:41:56.979Z,102391.00
2022-08-01T16:44:33.361Z,102394.00
2022-08-01T16:47:05.227Z,102398.00
2022-08-01T16:49:38.703Z,102394.00
2022-08-01T16:52:11.527Z,102397.00
2022-08-01T16:54:44.476Z,102400.00
2022-08-01T16:57:17.246Z,102391.00
2022-08-01T16:59:50.305Z,102390.00
2022-08-01T17:02:23.605Z,102389.00
2022-08-01T17:04:56.603Z,102388.00
2022-08-01T17:07:29.768Z,102383.00
2022-08-01T17:10:03.709Z,102389.00
2022-08-01T17:12:37.277Z,102403.00
2022-08-01T17:15:13.256Z,102390.00
2022-08-01T17:17:46.185Z,102386.00
2022-08-01T17:20:19.195Z,102396.00
2022-08-01T17:22:52.263Z,102396.00
2022-08-01T17:25:26.257Z,102400.00
2022-08-01T17:27:59.388Z,102396.00
2022-08-01T17:30:32.389Z,102378.00
2022-08-01T17:33:08.045Z,102382.00
2022-08-01T17:35:41.263Z,102389.00
2022-08-01T17:38:14.147Z,102377.00
2022-08-01T17:40:47.062Z,102370.00
2022-08-01T17:43:20.044Z,102368.00
2022-08-01T17:45:54.196Z,102376.00
2022-08-01T17:48:27.643Z,102378.00
2022-08-01T17:51:00.598Z,102382.00
2022-08-01T17:53:33.534Z,102386.00
2022-08-01T17:56:07.738Z,102374.00
2022-08-01T17:58:51.275Z,102374.00
2022-08-01T18:01:14.814Z,102382.00
2022-08-01T18:03:47.674Z,102387.00
2022-08-01T18:06:23.296Z,102372.00
2022-08-01T18:08:56.514Z,102382.00
2022-08-01T18:11:37.242Z,102378.00
2022-08-01T18:14:03.957Z,102374.00
2022-08-01T18:16:37.523Z,102378.00
2022-08-01T18:19:11.424Z,102373.00
2022-08-01T18:21:44.367Z,102369.00
2022-08-01T18:24:18.534Z,102371.00
2022-08-01T18:26:53.124Z,102389.00
2022-08-01T18:29:47.414Z,102391.00
2022-08-01T18:32:05.803Z,102392.00
2022-08-01T18:34:38.615Z,102394.00
2022-08-01T18:37:13.479Z,102399.00
2022-08-01T18:39:46.916Z,102401.00
2022-08-01T18:42:20.006Z,102400.00
2022-08-01T18:44:57.056Z,102393.00
2022-08-01T18:47:30.154Z,102400.00
2022-08-01T18:50:03.295Z,102388.00
2022-08-01T18:52:36.521Z,102393.00
2022-08-01T18:55:10.707Z,102401.00
2022-08-01T18:57:44.024Z,102405.00
2022-08-01T19:00:17.426Z,102406.00
2022-08-01T19:02:50.231Z,102408.00
2022-08-01T19:05:23.292Z,102416.00
2022-08-01T19:08:06.531Z,102417.00
2022-08-01T19:10:32.562Z,102419.00
2022-08-01T19:13:05.502Z,102419.00
2022-08-01T19:15:38.777Z,102432.00
2022-08-01T19:18:14.968Z,102436.00
2022-08-01T19:20:47.917Z,102444.00
2022-08-01T19:23:38.033Z,102443.00
2022-08-01T19:26:12.277Z,102451.00
2022-08-01T19:28:47.757Z,102447.00
2022-08-01T19:31:21.626Z,102455.00
2022-08-01T19:33:54.915Z,102448.00
2022-08-01T19:36:29.636Z,102457.00
2022-08-01T19:39:02.459Z,102451.00
2022-08-01T19:41:35.806Z,102472.00
2022-08-01T19:44:10.138Z,102464.00
2022-08-01T19:46:47.848Z,102466.00
2022-08-01T19:49:26.612Z,102468.00
2022-08-01T19:52:01.663Z,102469.00
2022-08-01T19:54:41.318Z,102477.00
2022-08-01T19:57:16.168Z,102477.00
2022-08-01T19:59:50.674Z,102469.00
2022-08-01T20:02:24.087Z,102475.00
2022-08-01T20:05:00.859Z,102479.00
2022-08-01T20:07:34.237Z,102469.00
2022-08-01T20:10:07.400Z,102477.00
2022-08-01T20:12:44.448Z,102482.00
2022-08-01T20:15:17.669Z,102489.00
2022-08-01T20:17:50.666Z,102491.00
2022-08-01T20:20:23.558Z,102496.00
2022-08-01T20:23:00.653Z,102499.00
2022-08-01T20:25:39.969Z,102507.00
2022-08-01T20:28:11.537Z,102508.00
2022-08-01T20:30:45.311Z,102501.00
2022-08-01T20:33:19.283Z,102498.00
2022-08-01T20:35:54.086Z,102498.00
2022-08-01T20:38:31.415Z,102498.00
2022-08-01T20:41:10.821Z,102490.00
2022-08-01T20:43:43.755Z,102497.00
2022-08-01T20:46:21.044Z,102490.00
2022-08-01T20:48:54.872Z,102494.00
2022-08-01T20:51:30.159Z,102498.00
2022-08-01T20:54:02.886Z,102492.00
2022-08-01T20:56:38.052Z,102487.00
2022-08-01T20:59:54.771Z,102514.00
2022-08-01T21:02:22.534Z,102500.00
2022-08-01T21:05:12.718Z,102499.00
2022-08-01T21:07:56.557Z,102507.00
2022-08-01T21:10:31.599Z,102502.00
2022-08-01T21:13:15.694Z,102507.00
2022-08-01T21:15:56.754Z,102507.00
2022-08-01T21:18:31.668Z,102520.00
2022-08-01T21:21:10.087Z,102513.00
2022-08-01T21:23:56.867Z,102509.00
2022-08-01T21:26:30.109Z,102507.00
2022-08-01T21:29:05.140Z,102510.00
2022-08-01T21:31:40.827Z,102504.00
2022-08-01T21:34:14.405Z,102514.00
2022-08-01T21:36:52.697Z,102509.00
2022-08-01T21:39:29.878Z,102502.00
2022-08-01T21:42:05.687Z,102499.00
2022-08-01T21:44:37.349Z,102506.00
2022-08-01T21:47:11.832Z,102507.00
2022-08-01T21:49:45.230Z,102511.00
2022-08-01T21:52:24.593Z,102512.00
2022-08-01T21:55:11.063Z,102517.00
2022-08-01T21:58:05.533Z,102520.00
2022-08-01T22:00:39.413Z,102520.00
2022-08-01T22:03:38.360Z,102524.00
2022-08-01T22:06:35.970Z,102519.00
2022-08-01T22:09:10.320Z,102524.00
2022-08-01T22:12:01.070Z,102527.00
2022-08-01T22:14:22.510Z,102530.00
2022-08-01T22:16:55.057Z,102535.00
2022-08-01T22:19:35.110Z,102528.00
2022-08-01T22:22:04.678Z,102534.00
2022-08-01T22:24:40.578Z,102534.00
2022-08-01T22:27:15.675Z,102531.00
2022-08-01T22:29:48.994Z,102527.00
2022-08-01T22:32:21.907Z,102531.00
2022-08-01T22:34:55.141Z,102525.00
2022-08-01T22:37:57.173Z,102528.00
2022-08-01T22:40:15.149Z,102529.00
2022-08-01T22:42:59.570Z,102522.00
2022-08-01T22:45:55.870Z,102533.00
2022-08-01T22:48:34.455Z,102530.00
2022-08-01T22:51:12.282Z,102530.00
2022-08-01T22:54:05.622Z,102531.00
2022-08-01T22:56:47.910Z,102533.00
2022-08-01T22:59:22.630Z,102526.00
2022-08-01T23:01:59.317Z,102533.00
2022-08-01T23:04:47.310Z,102528.00
2022-08-01T23:07:22.236Z,102524.00
2022-08-01T23:09:56.506Z,102523.00
2022-08-01T23:12:30.310Z,102521.00
2022-08-01T23:15:04.210Z,102520.00
2022-08-01T23:17:37.827Z,102520.00
2022-08-01T23:20:16.125Z,102518.00
2022-08-01T23:22:49.409Z,102508.00
2022-08-01T23:25:22.741Z,102512.00
2022-08-01T23:28:05.841Z,102509.00
2022-08-01T23:30:31.744Z,102506.00
2022-08-01T23:33:04.962Z,102503.00
2022-08-01T23:35:39.126Z,102503.00
2022-08-01T23:38:16.886Z,102498.00
2022-08-01T23:40:49.917Z,102496.00
2022-08-01T23:43:23.939Z,102502.00
2022-08-01T23:46:03.818Z,102502.00
2022-08-01T23:48:32.081Z,102496.00
2022-08-01T23:51:05.052Z,102504.00
2022-08-01T23:53:38.864Z,102491.00
2022-08-01T23:56:11.843Z,102491.00
2022-08-01T23:58:45.865Z,102492.00
